createdAt,value
2018-12-17T00:01:39.231Z,39.47
2018-12-17T00:04:07.452Z,41.63
2018-12-17T00:06:35.636Z,40.63
2018-12-17T00:09:05.556Z,38.03
2018-12-17T00:11:34.102Z,40.43
2018-12-17T00:14:02.280Z,43.17
2018-12-17T00:16:30.496Z,42.10
2018-12-17T00:18:58.676Z,42.30
2018-12-17T00:21:26.857Z,39.90
2018-12-17T00:23:55.093Z,41.30
2018-12-17T00:26:23.272Z,42.57
2018-12-17T00:28:51.444Z,41.07
2018-12-17T00:31:19.667Z,40.30
2018-12-17T00:33:47.856Z,40.27
2018-12-17T00:36:16.032Z,43.13
2018-12-17T00:38:44.255Z,39.40
2018-12-17T00:41:12.481Z,42.67
2018-12-17T00:43:40.747Z,39.50
2018-12-17T00:46:09.042Z,43.17
2018-12-17T00:48:37.333Z,39.50
2018-12-17T00:51:05.520Z,41.50
2018-12-17T00:53:33.733Z,38.90
2018-12-17T00:56:02.012Z,41.37
2018-12-17T00:58:30.244Z,41.30
2018-12-17T01:00:58.428Z,40.00
2018-12-17T01:03:26.704Z,42.50
2018-12-17T01:05:54.928Z,39.57
2018-12-17T01:08:23.111Z,39.23
2018-12-17T01:10:51.304Z,41.73
2018-12-17T01:13:19.496Z,41.33
2018-12-17T01:15:47.720Z,41.87
2018-12-17T01:18:15.908Z,39.57
2018-12-17T01:20:44.083Z,42.97
2018-12-17T01:23:12.312Z,40.00
2018-12-17T01:25:40.484Z,42.50
2018-12-17T01:28:08.657Z,42.87
2018-12-17T01:30:36.881Z,39.63
2018-12-17T01:33:05.213Z,40.80
2018-12-17T01:35:33.528Z,41.60
2018-12-17T01:38:01.709Z,40.70
2018-12-17T01:40:29.909Z,41.77
2018-12-17T01:42:58.124Z,42.33
2018-12-17T01:45:26.288Z,41.60
2018-12-17T01:47:54.504Z,42.60
2018-12-17T01:50:22.668Z,39.80
2018-12-17T01:52:50.888Z,42.13
2018-12-17T01:55:19.073Z,43.83
2018-12-17T01:57:47.360Z,42.77
2018-12-17T02:00:15.680Z,42.50
2018-12-17T02:02:43.937Z,42.73
2018-12-17T02:05:12.312Z,41.03
2018-12-17T02:07:40.549Z,42.43
2018-12-17T02:10:08.844Z,43.20
2018-12-17T02:12:37.151Z,44.47
2018-12-17T02:15:05.602Z,41.73
2018-12-17T02:17:33.827Z,41.50
2018-12-17T02:20:02.151Z,43.07
2018-12-17T02:22:30.424Z,42.70
2018-12-17T02:24:58.653Z,43.97
2018-12-17T02:27:26.836Z,42.00
2018-12-17T02:29:55.056Z,44.10
2018-12-17T02:32:23.245Z,42.10
2018-12-17T02:34:51.460Z,43.70
2018-12-17T02:37:19.648Z,43.07
2018-12-17T02:39:47.860Z,44.13
2018-12-17T02:42:16.052Z,42.60
2018-12-17T02:44:44.273Z,42.13
2018-12-17T02:47:12.495Z,44.10
2018-12-17T02:49:40.688Z,47.70
2018-12-17T02:52:08.908Z,42.37
2018-12-17T02:54:37.210Z,44.70
2018-12-17T02:57:05.480Z,42.17
2018-12-17T02:59:33.832Z,40.93
2018-12-17T03:02:02.223Z,44.07
2018-12-17T03:04:30.497Z,42.90
2018-12-17T03:06:58.725Z,43.43
2018-12-17T03:09:26.909Z,40.40
2018-12-17T03:11:55.124Z,40.43
2018-12-17T03:14:23.334Z,41.53
2018-12-17T03:16:51.561Z,41.50
2018-12-17T03:19:19.741Z,42.80
2018-12-17T03:21:47.933Z,40.90
2018-12-17T03:24:16.159Z,42.03
2018-12-17T03:26:44.414Z,42.43
2018-12-17T03:29:12.587Z,40.23
2018-12-17T03:31:41.110Z,45.80
2018-12-17T03:34:09.365Z,41.80
2018-12-17T03:36:37.596Z,43.20
2018-12-17T03:39:07.099Z,41.73
2018-12-17T03:41:35.520Z,44.67
2018-12-17T03:44:03.874Z,41.90
2018-12-17T03:46:32.083Z,42.87
2018-12-17T03:49:00.271Z,42.17
2018-12-17T03:51:28.484Z,41.60
2018-12-17T03:53:56.754Z,40.70
2018-12-17T03:56:24.968Z,42.73
2018-12-17T03:58:59.266Z,41.33
2018-12-17T04:01:23.360Z,43.90
2018-12-17T04:03:51.637Z,43.57
2018-12-17T04:06:19.825Z,42.27
2018-12-17T04:08:48.022Z,41.83
2018-12-17T04:11:16.252Z,41.80
2018-12-17T04:13:44.439Z,43.20
2018-12-17T04:16:12.709Z,42.43
2018-12-17T04:18:40.932Z,44.87
2018-12-17T04:21:09.279Z,45.80
2018-12-17T04:23:37.465Z,43.33
2018-12-17T04:26:05.709Z,43.43
2018-12-17T04:28:33.934Z,42.17
2018-12-17T04:31:02.123Z,43.57
2018-12-17T04:33:30.510Z,44.83
2018-12-17T04:35:58.780Z,42.53
2018-12-17T04:38:26.982Z,42.97
2018-12-17T04:40:55.252Z,41.80
2018-12-17T04:43:23.476Z,42.27
2018-12-17T04:45:51.703Z,42.40
2018-12-17T04:48:19.994Z,42.90
2018-12-17T04:50:48.295Z,43.50
2018-12-17T04:53:16.516Z,42.10
2018-12-17T04:55:44.693Z,44.47
2018-12-17T04:58:12.932Z,42.90
2018-12-17T05:00:41.116Z,43.63
2018-12-17T05:03:09.313Z,42.23
2018-12-17T05:05:37.568Z,43.33
2018-12-17T05:08:05.863Z,43.00
2018-12-17T05:10:34.252Z,44.13
2018-12-17T05:13:02.448Z,40.40
2018-12-17T05:15:30.996Z,41.90
2018-12-17T05:17:59.215Z,42.93
2018-12-17T05:20:27.405Z,44.33
2018-12-17T05:22:55.656Z,42.00
2018-12-17T05:25:23.876Z,44.10
2018-12-17T05:27:52.112Z,42.20
2018-12-17T05:30:20.395Z,42.40
2018-12-17T05:32:48.638Z,55.53
2018-12-17T05:35:16.860Z,47.50
2018-12-17T05:37:45.041Z,42.70
2018-12-17T05:40:13.308Z,43.07
2018-12-17T05:42:41.532Z,41.70
2018-12-17T05:45:09.857Z,41.40
2018-12-17T05:47:38.032Z,46.77
2018-12-17T05:50:06.493Z,43.07
2018-12-17T05:52:34.726Z,43.40
2018-12-17T05:55:02.954Z,46.50
2018-12-17T05:57:31.144Z,43.77
2018-12-17T05:59:59.341Z,41.17
2018-12-17T06:02:27.575Z,44.60
2018-12-17T06:04:55.781Z,42.77
2018-12-17T06:07:23.962Z,44.67
2018-12-17T06:09:52.184Z,44.80
2018-12-17T06:12:20.361Z,43.33
2018-12-17T06:14:48.621Z,44.77
2018-12-17T06:17:16.852Z,43.47
2018-12-17T06:19:45.084Z,44.63
2018-12-17T06:22:13.300Z,42.37
2018-12-17T06:24:41.479Z,51.23
2018-12-17T06:27:09.696Z,51.97
2018-12-17T06:29:37.933Z,51.57
2018-12-17T06:32:06.207Z,50.87
2018-12-17T06:34:34.493Z,52.20
2018-12-17T06:37:02.662Z,45.77
2018-12-17T06:39:30.841Z,44.47
2018-12-17T06:41:59.064Z,44.10
2018-12-17T06:44:27.269Z,42.23
2018-12-17T06:46:55.529Z,43.87
2018-12-17T06:49:23.759Z,43.83
2018-12-17T06:51:52.613Z,43.87
2018-12-17T06:54:21.592Z,46.53
2018-12-17T06:56:49.809Z,45.33
2018-12-17T06:59:18.105Z,46.70
2018-12-17T07:01:46.876Z,45.40
2018-12-17T07:04:15.129Z,42.20
2018-12-17T07:06:43.304Z,44.40
2018-12-17T07:09:11.544Z,44.60
2018-12-17T07:11:39.756Z,45.20
2018-12-17T07:14:08.029Z,45.67
2018-12-17T07:16:36.263Z,51.43
2018-12-17T07:19:04.585Z,41.60
2018-12-17T07:21:32.779Z,42.37
2018-12-17T07:24:01.161Z,45.03
2018-12-17T07:26:29.382Z,43.77
2018-12-17T07:28:57.560Z,44.67
2018-12-17T07:31:25.768Z,44.83
2018-12-17T07:33:53.959Z,44.30
2018-12-17T07:36:22.164Z,45.20
2018-12-17T07:38:50.509Z,44.77
2018-12-17T07:41:18.685Z,45.73
2018-12-17T07:43:46.896Z,45.00
2018-12-17T07:46:15.109Z,44.87
2018-12-17T07:48:43.289Z,45.73
2018-12-17T07:51:11.514Z,43.23
2018-12-17T07:53:39.736Z,46.33
2018-12-17T07:56:08.028Z,44.70
2018-12-17T07:58:36.261Z,43.40
2018-12-17T08:01:04.436Z,45.77
2018-12-17T08:03:32.658Z,44.50
2018-12-17T08:06:00.851Z,46.30
2018-12-17T08:08:35.196Z,47.97
2018-12-17T08:10:59.224Z,45.00
2018-12-17T08:13:27.529Z,44.90
2018-12-17T08:15:55.747Z,43.53
2018-12-17T08:18:24.733Z,44.27
2018-12-17T08:20:53.177Z,43.97
2018-12-17T08:23:21.364Z,47.43
2018-12-17T08:25:49.621Z,58.40
2018-12-17T08:28:17.900Z,57.77
2018-12-17T08:30:46.625Z,59.20
2018-12-17T08:33:14.806Z,55.33
2018-12-17T08:35:43.052Z,49.00
2018-12-17T08:38:11.246Z,46.53
2018-12-17T08:40:39.469Z,46.53
2018-12-17T08:43:14.408Z,49.33
2018-12-17T08:45:42.655Z,47.37
2018-12-17T08:48:10.859Z,47.87
2018-12-17T08:50:39.076Z,45.13
2018-12-17T08:53:07.413Z,43.73
2018-12-17T08:55:35.616Z,45.13
2018-12-17T08:58:03.948Z,45.97
2018-12-17T09:00:32.300Z,46.80
2018-12-17T09:03:00.473Z,45.83
2018-12-17T09:05:28.712Z,46.97
2018-12-17T09:07:56.913Z,46.27
2018-12-17T09:10:25.128Z,50.00
2018-12-17T09:12:53.321Z,45.97
2018-12-17T09:15:21.669Z,47.67
2018-12-17T09:17:49.864Z,51.40
2018-12-17T09:20:18.304Z,51.83
2018-12-17T09:22:46.497Z,52.73
2018-12-17T09:25:14.668Z,53.87
2018-12-17T09:27:42.884Z,51.23
2018-12-17T09:30:18.053Z,48.13
2018-12-17T09:32:41.484Z,49.93
2018-12-17T09:35:09.965Z,49.00
2018-12-17T09:37:38.192Z,48.13
2018-12-17T09:40:07.056Z,49.50
2018-12-17T09:42:35.232Z,50.57
2018-12-17T09:45:04.396Z,50.60
2018-12-17T09:47:32.584Z,52.80
2018-12-17T09:50:00.812Z,53.33
2018-12-17T09:52:29.005Z,52.50
2018-12-17T09:54:57.223Z,50.97
2018-12-17T09:57:25.426Z,51.63
2018-12-17T09:59:53.653Z,50.10
2018-12-17T10:02:21.872Z,47.90
2018-12-17T10:04:50.060Z,48.10
2018-12-17T10:07:18.456Z,45.30
2018-12-17T10:09:46.689Z,46.00
2018-12-17T10:12:14.900Z,45.77
2018-12-17T10:14:43.136Z,46.80
2018-12-17T10:17:11.348Z,47.00
2018-12-17T10:19:39.576Z,46.20
2018-12-17T10:22:08.222Z,47.33
2018-12-17T10:24:36.506Z,48.07
2018-12-17T10:27:04.821Z,47.67
2018-12-17T10:29:33.000Z,48.60
2018-12-17T10:32:01.677Z,44.70
2018-12-17T10:34:29.908Z,44.67
2018-12-17T10:36:58.089Z,44.17
2018-12-17T10:39:26.312Z,42.40
2018-12-17T10:41:54.484Z,45.50
2018-12-17T10:44:22.712Z,44.07
2018-12-17T10:46:50.928Z,43.57
2018-12-17T10:49:19.124Z,45.10
2018-12-17T10:51:47.332Z,44.00
2018-12-17T10:54:15.512Z,42.80
2018-12-17T10:56:43.814Z,44.73
2018-12-17T10:59:12.041Z,47.37
2018-12-17T11:01:45.577Z,46.80
2018-12-17T11:04:19.713Z,46.60
2018-12-17T11:06:47.945Z,45.23
2018-12-17T11:09:16.265Z,45.90
2018-12-17T11:11:44.463Z,41.33
2018-12-17T11:14:12.682Z,46.97
2018-12-17T11:16:40.904Z,44.00
2018-12-17T11:19:09.087Z,42.53
2018-12-17T11:21:37.260Z,44.10
2018-12-17T11:24:05.484Z,44.23
2018-12-17T11:26:36.633Z,44.07
2018-12-17T11:29:05.051Z,45.07
2018-12-17T11:31:33.264Z,42.90
2018-12-17T11:34:01.489Z,44.83
2018-12-17T11:36:29.710Z,42.97
2018-12-17T11:38:57.914Z,41.70
2018-12-17T11:41:26.098Z,45.40
2018-12-17T11:43:54.309Z,44.07
2018-12-17T11:46:22.561Z,41.73
2018-12-17T11:48:50.740Z,44.30
2018-12-17T11:51:19.001Z,43.97
2018-12-17T11:53:47.177Z,44.50
2018-12-17T11:56:15.385Z,43.30
2018-12-17T11:58:43.592Z,45.27
2018-12-17T12:01:12.428Z,41.57
2018-12-17T12:03:42.437Z,45.57
2018-12-17T12:06:14.233Z,45.53
2018-12-17T12:08:40.856Z,45.67
2018-12-17T12:11:09.098Z,44.33
2018-12-17T12:13:37.264Z,45.03
2018-12-17T12:16:05.534Z,39.80
2018-12-17T12:18:33.709Z,44.63
2018-12-17T12:21:01.980Z,41.30
2018-12-17T12:23:30.221Z,45.67
2018-12-17T12:25:58.410Z,43.03
2018-12-17T12:28:26.590Z,46.30
2018-12-17T12:31:00.480Z,42.30
2018-12-17T12:33:25.015Z,41.73
2018-12-17T12:35:53.260Z,44.00
2018-12-17T12:38:21.433Z,43.90
2018-12-17T12:40:49.680Z,45.43
2018-12-17T12:43:17.892Z,44.73
2018-12-17T12:45:46.153Z,45.27
2018-12-17T12:48:14.328Z,43.97
2018-12-17T12:50:42.507Z,46.53
2018-12-17T12:53:10.732Z,43.80
2018-12-17T12:55:38.959Z,46.10
2018-12-17T12:58:07.159Z,44.20
2018-12-17T13:00:35.352Z,43.43
2018-12-17T13:03:03.696Z,43.77
2018-12-17T13:05:31.896Z,44.20
2018-12-17T13:08:00.123Z,45.70
2018-12-17T13:10:28.308Z,45.03
2018-12-17T13:12:56.484Z,43.27
2018-12-17T13:15:24.705Z,47.17
2018-12-17T13:17:52.987Z,47.53
2018-12-17T13:20:21.215Z,45.10
2018-12-17T13:22:49.420Z,44.90
2018-12-17T13:25:39.641Z,43.60
2018-12-17T13:28:07.927Z,44.90
2018-12-17T13:30:36.452Z,45.40
2018-12-17T13:33:04.628Z,45.23
2018-12-17T13:35:32.807Z,45.30
2018-12-17T13:38:01.036Z,44.10
2018-12-17T13:40:29.217Z,44.40
2018-12-17T13:42:57.428Z,46.63
2018-12-17T13:45:25.621Z,46.43
2018-12-17T13:47:53.853Z,48.60
2018-12-17T13:50:30.174Z,45.93
2018-12-17T13:53:01.736Z,44.60
2018-12-17T13:55:29.958Z,42.47
2018-12-17T13:57:58.179Z,43.97
2018-12-17T14:00:26.388Z,47.13
2018-12-17T14:02:54.632Z,44.17
2018-12-17T14:05:22.936Z,45.20
2018-12-17T14:07:51.135Z,45.37
2018-12-17T14:10:24.524Z,40.50
2018-12-17T14:12:52.708Z,48.97
2018-12-17T14:15:20.933Z,42.47
2018-12-17T14:17:49.120Z,45.83
2018-12-17T14:20:22.572Z,45.67
2018-12-17T14:22:50.765Z,43.47
2018-12-17T14:25:19.000Z,44.77
2018-12-17T14:27:47.180Z,47.20
2018-12-17T14:30:15.360Z,43.70
2018-12-17T14:32:43.585Z,43.97
2018-12-17T14:35:11.839Z,45.27
2018-12-17T14:37:45.236Z,43.10
2018-12-17T14:40:13.544Z,44.07
2018-12-17T14:42:41.759Z,44.00
2018-12-17T14:45:09.865Z,45.80
2018-12-17T14:47:38.176Z,43.57
2018-12-17T14:50:06.517Z,45.80
2018-12-17T14:52:34.708Z,48.90
2018-12-17T14:55:02.892Z,45.33
2018-12-17T14:57:31.125Z,44.27
2018-12-17T14:59:59.374Z,45.80
2018-12-17T15:02:27.560Z,45.60
2018-12-17T15:04:55.743Z,44.87
2018-12-17T15:07:23.961Z,45.43
2018-12-17T15:09:52.181Z,46.17
2018-12-17T15:12:20.391Z,46.23
2018-12-17T15:14:48.576Z,44.73
2018-12-17T15:17:16.800Z,45.17
2018-12-17T15:19:45.129Z,44.70
2018-12-17T15:22:13.405Z,46.30
2018-12-17T15:24:41.661Z,45.20
2018-12-17T15:27:09.993Z,44.87
2018-12-17T15:29:38.244Z,45.00
2018-12-17T15:32:06.529Z,41.63
2018-12-17T15:34:34.735Z,45.10
2018-12-17T15:37:02.916Z,44.03
2018-12-17T15:39:31.129Z,46.00
2018-12-17T15:41:59.348Z,44.30
2018-12-17T15:44:28.918Z,44.53
2018-12-17T15:46:57.260Z,43.90
2018-12-17T15:49:25.504Z,47.20
2018-12-17T15:51:53.714Z,46.53
2018-12-17T15:54:22.176Z,42.20
2018-12-17T15:56:50.380Z,47.30
2018-12-17T15:59:18.697Z,46.10
2018-12-17T16:01:49.981Z,46.90
2018-12-17T16:04:17.137Z,46.50
2018-12-17T16:06:45.376Z,47.20
2018-12-17T16:09:13.579Z,45.87
2018-12-17T16:11:41.820Z,48.37
2018-12-17T16:14:10.057Z,47.60
2018-12-17T16:16:38.285Z,46.37
2018-12-17T16:19:06.473Z,48.13
2018-12-17T16:21:34.660Z,46.20
2018-12-17T16:24:02.909Z,48.90
2018-12-17T16:26:31.103Z,50.07
2018-12-17T16:28:59.267Z,46.70
2018-12-17T16:31:27.484Z,46.97
2018-12-17T16:33:55.716Z,48.33
2018-12-17T16:36:23.926Z,47.60
2018-12-17T16:38:52.140Z,45.10
2018-12-17T16:41:20.376Z,46.80
2018-12-17T16:43:48.592Z,46.57
2018-12-17T16:46:16.772Z,47.40
2018-12-17T16:48:45.003Z,46.87
2018-12-17T16:51:13.213Z,48.40
2018-12-17T16:53:41.456Z,47.63
2018-12-17T16:56:09.649Z,44.43
2018-12-17T16:58:37.829Z,43.40
2018-12-17T17:01:06.180Z,44.63
2018-12-17T17:03:34.396Z,45.70
2018-12-17T17:06:02.633Z,43.23
2018-12-17T17:08:30.817Z,41.50
2018-12-17T17:10:59.004Z,43.73
2018-12-17T17:13:27.223Z,41.47
2018-12-17T17:15:55.425Z,45.10
2018-12-17T17:18:23.612Z,42.83
2018-12-17T17:20:51.829Z,43.87
2018-12-17T17:23:20.144Z,45.20
2018-12-17T17:25:48.380Z,42.60
2018-12-17T17:28:16.567Z,43.00
2018-12-17T17:30:44.795Z,45.97
2018-12-17T17:33:13.037Z,44.90
2018-12-17T17:35:41.248Z,41.23
2018-12-17T17:38:09.441Z,42.33
2018-12-17T17:40:37.704Z,42.70
2018-12-17T17:43:05.976Z,41.80
2018-12-17T17:45:34.161Z,44.07
2018-12-17T17:48:02.545Z,45.10
2018-12-17T17:50:30.744Z,42.67
2018-12-17T17:52:58.964Z,43.43
2018-12-17T17:55:27.238Z,41.47
2018-12-17T17:57:55.448Z,44.33
2018-12-17T18:00:23.669Z,44.93
2018-12-17T18:02:51.848Z,43.57
2018-12-17T18:05:20.164Z,46.43
2018-12-17T18:07:48.493Z,42.63
2018-12-17T18:10:16.673Z,43.50
2018-12-17T18:12:44.885Z,42.50
2018-12-17T18:15:13.225Z,43.03
2018-12-17T18:17:41.403Z,44.40
2018-12-17T18:20:09.854Z,41.07
2018-12-17T18:22:38.047Z,43.57
2018-12-17T18:25:06.512Z,44.00
2018-12-17T18:27:34.733Z,43.50
2018-12-17T18:30:03.153Z,44.53
2018-12-17T18:32:31.363Z,43.40
2018-12-17T18:34:59.660Z,41.13
2018-12-17T18:37:27.880Z,45.13
2018-12-17T18:39:56.116Z,44.70
2018-12-17T18:42:24.343Z,45.30
2018-12-17T18:44:52.656Z,45.80
2018-12-17T18:47:25.619Z,46.90
2018-12-17T18:49:51.172Z,44.40
2018-12-17T18:52:19.413Z,46.90
2018-12-17T18:54:47.627Z,44.87
2018-12-17T18:57:15.799Z,46.30
2018-12-17T18:59:44.041Z,46.43
2018-12-17T19:02:12.440Z,48.67
2018-12-17T19:04:40.684Z,43.10
2018-12-17T19:07:08.876Z,43.13
2018-12-17T19:09:37.133Z,45.07
2018-12-17T19:12:05.321Z,45.80
2018-12-17T19:14:33.663Z,47.47
2018-12-17T19:17:01.909Z,44.43
2018-12-17T19:19:30.084Z,47.70
2018-12-17T19:21:58.327Z,48.80
2018-12-17T19:24:26.564Z,52.13
2018-12-17T19:26:54.849Z,46.10
2018-12-17T19:29:23.092Z,45.03
2018-12-17T19:31:51.286Z,45.53
2018-12-17T19:34:19.559Z,45.13
2018-12-17T19:36:47.873Z,42.90
2018-12-17T19:39:16.064Z,44.30
2018-12-17T19:41:44.297Z,43.30
2018-12-17T19:44:12.473Z,46.53
2018-12-17T19:46:41.714Z,46.37
2018-12-17T19:49:09.955Z,43.23
2018-12-17T19:51:38.141Z,47.20
2018-12-17T19:54:06.328Z,46.43
2018-12-17T19:56:34.567Z,48.17
2018-12-17T19:59:02.749Z,46.73
2018-12-17T20:01:30.937Z,44.83
2018-12-17T20:03:59.178Z,45.83
2018-12-17T20:06:27.377Z,45.50
2018-12-17T20:08:55.597Z,47.80
2018-12-17T20:11:23.792Z,45.57
2018-12-17T20:13:52.171Z,47.70
2018-12-17T20:16:20.360Z,47.83
2018-12-17T20:18:48.667Z,47.30
2018-12-17T20:21:16.881Z,44.10
2018-12-17T20:23:45.080Z,45.10
2018-12-17T20:26:13.304Z,45.23
2018-12-17T20:28:41.480Z,45.07
2018-12-17T20:31:09.736Z,44.60
2018-12-17T20:33:37.960Z,45.07
2018-12-17T20:36:06.165Z,46.03
2018-12-17T20:38:34.371Z,45.83
2018-12-17T20:41:02.604Z,47.90
2018-12-17T20:43:30.853Z,45.97
2018-12-17T20:46:00.030Z,44.87
2018-12-17T20:48:28.216Z,48.13
2018-12-17T20:50:56.442Z,45.30
2018-12-17T20:53:24.636Z,43.10
2018-12-17T20:55:52.848Z,44.80
2018-12-17T20:58:21.043Z,43.27
2018-12-17T21:00:49.256Z,39.77
2018-12-17T21:03:17.452Z,41.33
2018-12-17T21:05:45.728Z,44.40
2018-12-17T21:08:13.960Z,47.23
2018-12-17T21:10:42.161Z,42.63
2018-12-17T21:13:10.384Z,45.60
2018-12-17T21:15:38.577Z,44.77
2018-12-17T21:18:06.768Z,44.80
2018-12-17T21:20:34.998Z,43.73
2018-12-17T21:23:03.204Z,46.57
2018-12-17T21:25:31.431Z,46.00
2018-12-17T21:27:59.600Z,46.47
2018-12-17T21:30:27.832Z,44.50
2018-12-17T21:32:56.060Z,47.00
2018-12-17T21:35:24.280Z,45.40
2018-12-17T21:37:52.508Z,41.60
2018-12-17T21:40:20.684Z,45.80
2018-12-17T21:42:48.915Z,45.70
2018-12-17T21:45:17.094Z,42.60
2018-12-17T21:47:45.336Z,43.17
2018-12-17T21:50:13.613Z,45.97
2018-12-17T21:52:41.792Z,42.40
2018-12-17T21:55:10.027Z,40.73
2018-12-17T21:57:38.207Z,43.40
2018-12-17T22:00:07.052Z,45.37
2018-12-17T22:02:35.365Z,44.47
2018-12-17T22:05:04.020Z,43.80
2018-12-17T22:07:32.251Z,43.80
2018-12-17T22:10:01.083Z,47.83
2018-12-17T22:12:29.424Z,43.00
2018-12-17T22:14:57.655Z,43.67
2018-12-17T22:17:25.897Z,45.80
2018-12-17T22:19:54.087Z,45.73
2018-12-17T22:22:22.320Z,47.80
2018-12-17T22:24:50.612Z,43.30
2018-12-17T22:27:18.788Z,46.23
2018-12-17T22:29:47.088Z,46.50
2018-12-17T22:32:15.304Z,42.00
2018-12-17T22:34:43.504Z,50.07
2018-12-17T22:37:11.706Z,45.07
2018-12-17T22:39:40.016Z,41.07
2018-12-17T22:42:08.238Z,43.47
2018-12-17T22:44:36.553Z,42.73
2018-12-17T22:47:04.868Z,41.93
2018-12-17T22:49:33.204Z,42.90
2018-12-17T22:52:01.449Z,45.17
2018-12-17T22:54:29.713Z,44.40
2018-12-17T22:56:57.924Z,42.20
2018-12-17T22:59:26.111Z,43.37
2018-12-17T23:01:54.448Z,40.67
2018-12-17T23:04:22.669Z,44.90
2018-12-17T23:06:50.914Z,44.70
2018-12-17T23:09:18.092Z,41.43
2018-12-17T23:12:02.770Z,44.73
2018-12-17T23:14:42.012Z,38.73
2018-12-17T23:17:21.329Z,40.30
2018-12-17T23:19:49.817Z,40.80
2018-12-17T23:22:20.108Z,40.13
2018-12-17T23:24:48.440Z,40.67
2018-12-17T23:27:16.648Z,38.37
2018-12-17T23:29:44.896Z,40.83
2018-12-17T23:32:13.176Z,37.80
2018-12-17T23:34:41.353Z,37.77
2018-12-17T23:37:09.664Z,39.23
2018-12-17T23:39:37.839Z,37.07
2018-12-17T23:42:06.196Z,38.90
2018-12-17T23:44:36.572Z,39.40
2018-12-17T23:47:05.004Z,35.57
2018-12-17T23:49:33.224Z,40.67
2018-12-17T23:52:01.412Z,36.80
2018-12-17T23:54:29.580Z,37.67
2018-12-17T23:56:57.818Z,38.53
2018-12-17T23:59:25.988Z,34.93
